ESSD/BLE METAR and TAF weather

Enter ICAO airport designator
Station Type Date Time Source
ESSD METAR 2019/06/17 12:50 UTC NOAA

ESSD 171250Z 27016KT CAVOK 22/08 Q1013


Station Type Date Time Source
ESSD Decoded METAR 2019/06/17 12:50 UTC NOAA

Borlange, Sweden (ESSD) 60-26N 015-31E 0M
Jun 17, 2019 - 08:50 AM EDT / 2019.06.17 1250 UTC
Wind: from the W (270 degrees) at 18 MPH (16 KT):0
Visibility: greater than 7 mile(s):0
Temperature: 71 F (22 C)
Dew Point: 46 F (8 C)
Relative Humidity: 40%
Pressure (altimeter): 29.91 in. Hg (1013 hPa)
ob: ESSD 171250Z 27016KT CAVOK 22/08 Q1013
cycle: 13

Station Type Date Time Source
ESSD TAF 2018/05/02 04:48 UTC NOAA

TAF TAF ESSD 020320Z 0204/0412 27008KT 9999 BKN019 PROB40 0204/0209 BKN006

Example: see airport list